Time;durP1;ratioP1;P1;durP2;ratioP2;P2;SDS_P1;SDS_P2;PMS_P1;PMS_P2;Temp;Humidity;BMP_temperature;BMP_pressure;BME280_temperature;BME280_humidity;BME280_pressure;Samples;Min_cycle;Max_cycle;Signal;HPM_P1;HPM_P2
2022/09/14 00:00:44;;;;;;;5.25;1.40;;;22.20;87.40;;;;;;5013970;28;20153;-68
2022/09/14 00:03:10;;;;;;;3.67;1.15;;;22.20;87.30;;;;;;5013909;28;20030;-70
2022/09/14 00:05:36;;;;;;;2.47;1.23;;;22.20;87.30;;;;;;5013855;28;20132;-69
2022/09/14 00:08:03;;;;;;;4.57;1.20;;;22.20;87.30;;;;;;5013729;28;20022;-69
2022/09/14 00:10:29;;;;;;;4.95;1.50;;;22.20;87.30;;;;;;5013784;28;20022;-70
2022/09/14 00:12:54;;;;;;;1.92;1.35;;;22.20;87.30;;;;;;5013866;28;20026;-70
2022/09/14 00:15:20;;;;;;;2.55;1.08;;;22.20;87.30;;;;;;5013801;28;20028;-70
2022/09/14 00:17:46;;;;;;;3.13;1.38;;;22.20;87.40;;;;;;5013841;28;20028;-69
2022/09/14 00:20:12;;;;;;;4.90;1.70;;;22.20;87.50;;;;;;5013769;28;20488;-70
2022/09/14 00:22:38;;;;;;;4.60;1.45;;;22.20;87.50;;;;;;5013735;28;20034;-70
2022/09/14 00:25:04;;;;;;;5.10;1.58;;;22.20;87.40;;;;;;5013599;28;20021;-70
2022/09/14 00:27:30;;;;;;;3.90;1.60;;;22.20;87.40;;;;;;5013516;28;20026;-69
2022/09/14 00:29:55;;;;;;;4.40;1.38;;;22.20;87.50;;;;;;5013547;28;20022;-70
2022/09/14 00:32:21;;;;;;;8.13;1.85;;;22.20;87.50;;;;;;5013499;28;20172;-69
2022/09/14 00:34:47;;;;;;;8.00;1.50;;;22.20;87.40;;;;;;5013349;28;20033;-69
2022/09/14 00:37:12;;;;;;;4.43;1.20;;;22.20;87.40;;;;;;5013541;28;20030;-69
2022/09/14 00:39:38;;;;;;;4.85;1.65;;;22.20;87.50;;;;;;5012463;28;20032;-69
2022/09/14 00:42:05;;;;;;;7.32;1.77;;;22.20;87.40;;;;;;5010438;28;20654;-69
2022/09/14 00:44:30;;;;;;;3.83;1.33;;;22.20;87.50;;;;;;5010735;28;20018;-70
2022/09/14 00:46:59;;;;;;;2.65;1.25;;;22.20;87.60;;;;;;5013298;28;20061;-69
2022/09/14 00:49:38;;;;;;;3.00;1.55;;;22.20;87.70;;;;;;5013120;28;20046;-70
2022/09/14 00:52:15;;;;;;;5.97;1.08;;;22.20;87.60;;;;;;5013080;28;20018;-70
2022/09/14 00:54:45;;;;;;;2.88;1.40;;;22.20;87.60;;;;;;5013313;28;20076;-70
2022/09/14 00:57:11;;;;;;;3.72;1.45;;;22.20;87.60;;;;;;5012807;28;20099;-70
2022/09/14 00:59:39;;;;;;;3.28;1.50;;;22.20;87.50;;;;;;5009837;28;20033;-70
2022/09/14 01:02:08;;;;;;;2.42;1.20;;;22.20;87.40;;;;;;5010286;28;20109;-70
2022/09/14 01:04:35;;;;;;;6.03;1.55;;;22.20;87.50;;;;;;5011154;28;20108;-70
2022/09/14 01:07:12;;;;;;;7.18;1.30;;;22.20;87.60;;;;;;5012631;28;20097;-70
2022/09/14 01:09:48;;;;;;;2.80;1.27;;;22.20;87.60;;;;;;5012762;28;20104;-69
2022/09/14 01:12:58;;;;;;;5.57;1.30;;;22.20;87.70;;;;;;5013034;28;20030;-70
2022/09/14 01:15:47;;;;;;;6.00;1.30;;;22.20;87.80;;;;;;4971672;28;20031;-69
2022/09/14 01:18:23;;;;;;;2.78;1.30;;;22.20;87.80;;;;;;5011020;28;20056;-70
2022/09/14 01:20:54;;;;;;;5.43;1.20;;;22.20;87.70;;;;;;5012661;28;20018;-70
2022/09/14 01:23:34;;;;;;;5.83;1.57;;;22.20;87.80;;;;;;5015723;28;20446;-70
2022/09/14 01:25:59;;;;;;;6.45;2.00;;;22.20;87.90;;;;;;5017347;28;20097;-70
2022/09/14 01:28:46;;;;;;;5.93;1.42;;;22.20;87.80;;;;;;5016705;28;20104;-70
2022/09/14 01:31:17;;;;;;;3.70;1.60;;;22.20;87.90;;;;;;5017039;28;20018;-70
2022/09/14 01:34:08;;;;;;;3.58;1.60;;;22.20;87.70;;;;;;5016724;28;20109;-70
2022/09/14 01:36:37;;;;;;;7.53;1.60;;;22.20;87.90;;;;;;5016279;28;20030;-69
2022/09/14 01:39:03;;;;;;;4.88;1.50;;;22.20;88.00;;;;;;5016707;28;20033;-70
2022/09/14 01:41:30;;;;;;;5.13;1.65;;;22.10;88.00;;;;;;5016513;28;20026;-71
2022/09/14 01:44:03;;;;;;;5.85;1.67;;;22.10;88.10;;;;;;5016615;28;20073;-70
2022/09/14 01:46:43;;;;;;;9.75;1.80;;;22.10;87.90;;;;;;5016498;28;20025;-69
2022/09/14 01:49:17;;;;;;;3.60;1.60;;;22.20;88.00;;;;;;5016459;28;20046;-70
2022/09/14 01:52:08;;;;;;;4.60;1.90;;;22.10;88.10;;;;;;5016727;28;20028;-70
2022/09/14 01:54:51;;;;;;;7.05;1.33;;;22.10;88.10;;;;;;5015790;28;20124;-70
2022/09/14 01:57:35;;;;;;;5.20;1.65;;;22.10;88.20;;;;;;5013660;28;20029;-69
2022/09/14 02:00:06;;;;;;;6.82;1.65;;;22.10;88.30;;;;;;5014179;28;20069;-69
2022/09/14 02:02:34;;;;;;;5.85;1.60;;;22.10;88.40;;;;;;5016536;28;20185;-70
2022/09/14 02:05:26;;;;;;;2.80;1.45;;;22.10;88.60;;;;;;5016348;28;20030;-69
2022/09/14 02:07:52;;;;;;;4.93;1.33;;;22.10;88.60;;;;;;5010942;28;20030;-69
2022/09/14 02:10:17;;;;;;;4.97;1.45;;;22.10;88.40;;;;;;5016352;28;20026;-69
2022/09/14 02:12:43;;;;;;;3.35;1.30;;;22.10;88.60;;;;;;5015907;28;20075;-70
2022/09/14 02:15:12;;;;;;;2.40;1.50;;;22.10;88.60;;;;;;5015931;28;20084;-70
2022/09/14 02:17:38;;;;;;;3.38;1.30;;;22.10;88.60;;;;;;5015729;28;20018;-70
2022/09/14 02:20:08;;;;;;;6.20;1.55;;;22.10;88.70;;;;;;5016066;28;20117;-70
2022/09/14 02:22:34;;;;;;;3.47;1.63;;;22.10;88.90;;;;;;5015959;28;20042;-69
2022/09/14 02:25:00;;;;;;;4.40;1.48;;;22.10;88.80;;;;;;5015606;28;20579;-70
2022/09/14 02:27:26;;;;;;;4.43;1.65;;;22.10;88.90;;;;;;5015527;28;20480;-69
2022/09/14 02:29:52;;;;;;;2.50;1.48;;;22.10;89.00;;;;;;5015930;28;20030;-69
2022/09/14 02:32:29;;;;;;;8.40;1.70;;;22.10;89.10;;;;;;5015267;28;20037;-70
2022/09/14 02:35:20;;;;;;;5.00;1.38;;;22.10;89.10;;;;;;5015807;28;20053;-70
2022/09/14 02:38:03;;;;;;;2.47;1.40;;;22.10;89.00;;;;;;5015708;28;20022;-70
2022/09/14 02:40:35;;;;;;;4.57;1.55;;;22.10;89.30;;;;;;5015563;28;20025;-70
2022/09/14 02:43:41;;;;;;;2.25;1.33;;;22.10;89.50;;;;;;5015020;28;20141;-70
2022/09/14 02:46:34;;;;;;;2.70;1.45;;;22.00;89.50;;;;;;5015627;28;20026;-70
2022/09/14 02:49:23;;;;;;;6.82;1.30;;;22.00;89.70;;;;;;5015700;28;20045;-69
2022/09/14 02:52:17;;;;;;;6.00;1.50;;;22.10;89.80;;;;;;5015481;28;20026;-70
2022/09/14 02:54:57;;;;;;;4.40;1.30;;;22.10;89.90;;;;;;5015616;28;20072;-70
2022/09/14 02:57:24;;;;;;;2.50;1.42;;;22.00;89.90;;;;;;5015382;28;20025;-68
2022/09/14 02:59:52;;;;;;;2.78;1.50;;;22.10;90.00;;;;;;5015320;28;20026;-69
2022/09/14 03:02:18;;;;;;;2.38;1.38;;;22.00;89.90;;;;;;5015073;28;20076;-69
2022/09/14 03:04:43;;;;;;;6.15;1.55;;;22.00;89.90;;;;;;5015241;28;20046;-70
2022/09/14 03:07:09;;;;;;;3.28;1.20;;;22.00;89.90;;;;;;5015017;28;20033;-69
2022/09/14 03:09:34;;;;;;;2.88;1.70;;;22.00;90.00;;;;;;5015073;28;20022;-70
2022/09/14 03:12:01;;;;;;;4.22;1.42;;;22.00;90.00;;;;;;5015138;28;20485;-69
2022/09/14 03:14:26;;;;;;;3.60;1.58;;;22.00;90.00;;;;;;5014942;28;20096;-70
2022/09/14 03:16:52;;;;;;;5.68;1.58;;;22.00;89.90;;;;;;5014732;28;20025;-70
2022/09/14 03:19:17;;;;;;;3.00;1.08;;;22.00;90.00;;;;;;5014976;28;20022;-69
2022/09/14 03:21:43;;;;;;;3.47;1.73;;;22.00;90.00;;;;;;5014779;28;20033;-69
2022/09/14 03:24:09;;;;;;;2.40;1.70;;;22.00;90.00;;;;;;5014806;28;20105;-70
2022/09/14 03:26:37;;;;;;;2.63;1.42;;;22.00;90.10;;;;;;5014632;28;20030;-70
2022/09/14 03:29:04;;;;;;;7.05;1.80;;;22.00;90.00;;;;;;5014513;28;20057;-70
2022/09/14 03:31:29;;;;;;;2.83;1.50;;;22.00;89.80;;;;;;5014377;28;20041;-69
2022/09/14 03:33:57;;;;;;;7.22;1.60;;;22.00;89.80;;;;;;5014574;28;20019;-69
2022/09/14 03:36:25;;;;;;;9.05;1.48;;;22.00;89.70;;;;;;5014415;28;20025;-70
2022/09/14 03:38:52;;;;;;;3.83;1.75;;;21.90;89.50;;;;;;5014399;28;20026;-70
2022/09/14 03:41:20;;;;;;;3.47;1.83;;;22.00;89.60;;;;;;5014598;28;20507;-70
2022/09/14 03:43:45;;;;;;;5.53;1.70;;;21.90;89.60;;;;;;5013862;28;20048;-69
2022/09/14 03:46:14;;;;;;;4.65;1.50;;;21.90;89.70;;;;;;5013925;28;20029;-70
2022/09/14 03:48:40;;;;;;;3.75;1.58;;;21.90;89.80;;;;;;5014538;28;20453;-70
2022/09/14 03:51:08;;;;;;;2.70;1.67;;;21.90;89.90;;;;;;5014049;28;20045;-70
2022/09/14 03:53:34;;;;;;;3.40;1.60;;;21.90;89.90;;;;;;5014119;28;20451;-70
2022/09/14 03:56:00;;;;;;;3.25;1.60;;;21.90;90.00;;;;;;5014143;28;20416;-70
2022/09/14 03:58:29;;;;;;;7.82;1.70;;;21.90;90.00;;;;;;5014124;28;20030;-69
2022/09/14 04:00:56;;;;;;;5.85;1.50;;;21.90;90.00;;;;;;5014331;28;20104;-69
2022/09/14 04:03:22;;;;;;;4.15;1.63;;;21.90;90.00;;;;;;5013967;28;20116;-70
2022/09/14 04:05:55;;;;;;;8.00;1.95;;;21.90;90.00;;;;;;5014241;28;20057;-70
2022/09/14 04:08:21;;;;;;;10.40;1.70;;;21.90;90.00;;;;;;5014002;28;20083;-69
2022/09/14 04:10:46;;;;;;;4.70;1.60;;;21.90;90.10;;;;;;5013709;28;20108;-70
2022/09/14 04:13:12;;;;;;;3.20;1.45;;;21.90;90.10;;;;;;5013652;28;20537;-70
2022/09/14 04:15:38;;;;;;;3.25;1.50;;;21.90;90.20;;;;;;5013718;28;20477;-70
2022/09/14 04:18:03;;;;;;;6.63;1.70;;;21.90;90.20;;;;;;5013917;28;20061;-69
2022/09/14 04:20:29;;;;;;;4.47;1.48;;;21.90;90.20;;;;;;5013810;28;20108;-69
2022/09/14 04:22:55;;;;;;;5.05;1.60;;;21.90;90.20;;;;;;5013535;28;20045;-69
2022/09/14 04:25:22;;;;;;;5.93;1.63;;;21.90;90.20;;;;;;5013624;28;20037;-70
2022/09/14 04:27:49;;;;;;;4.22;1.50;;;21.90;90.20;;;;;;5013046;28;20423;-69
2022/09/14 04:30:15;;;;;;;4.80;1.65;;;21.90;90.20;;;;;;5013506;28;20387;-69
2022/09/14 04:32:41;;;;;;;4.43;1.70;;;21.90;90.20;;;;;;5013568;28;20096;-69
2022/09/14 04:35:08;;;;;;;4.25;1.55;;;21.90;90.20;;;;;;5013655;28;20026;-70
2022/09/14 04:37:33;;;;;;;7.50;1.83;;;21.90;90.20;;;;;;5013410;28;20030;-69
2022/09/14 04:39:59;;;;;;;3.25;1.40;;;21.90;90.20;;;;;;5013194;28;20112;-69
2022/09/14 04:42:25;;;;;;;4.20;1.65;;;21.90;90.10;;;;;;5013250;28;20109;-69
2022/09/14 04:44:50;;;;;;;7.38;1.48;;;21.90;90.10;;;;;;5013441;28;20041;-69
2022/09/14 04:47:16;;;;;;;7.38;1.70;;;21.90;90.10;;;;;;5013441;28;20036;-69
2022/09/14 04:49:42;;;;;;;3.83;1.52;;;21.90;90.10;;;;;;5013308;28;20076;-69
2022/09/14 04:52:07;;;;;;;3.35;1.23;;;21.90;90.10;;;;;;5012720;28;20492;-68
2022/09/14 04:54:33;;;;;;;5.63;1.60;;;21.90;90.10;;;;;;5013407;28;20373;-70
2022/09/14 04:56:59;;;;;;;3.13;1.30;;;21.90;90.00;;;;;;5012433;28;20100;-70
2022/09/14 04:59:24;;;;;;;4.43;1.40;;;21.90;90.00;;;;;;5013380;28;20033;-70
2022/09/14 05:01:50;;;;;;;6.55;1.40;;;21.90;90.00;;;;;;5012780;28;20056;-69
2022/09/14 05:04:16;;;;;;;2.70;1.35;;;21.80;90.00;;;;;;5013180;28;20037;-70
2022/09/14 05:06:43;;;;;;;7.93;2.05;;;21.80;90.10;;;;;;5013198;28;20021;-70
2022/09/14 05:09:14;;;;;;;3.72;1.25;;;21.80;90.10;;;;;;5013051;28;20026;-70
2022/09/14 05:11:41;;;;;;;8.25;1.70;;;21.80;90.10;;;;;;5013479;28;20427;-70
2022/09/14 05:14:09;;;;;;;3.92;1.67;;;21.80;90.10;;;;;;5012853;28;20029;-69
2022/09/14 05:16:36;;;;;;;13.68;2.65;;;21.80;90.10;;;;;;5012817;28;20411;-69
2022/09/14 05:19:05;;;;;;;5.78;1.63;;;21.80;90.10;;;;;;5013231;28;20057;-71
2022/09/14 05:21:34;;;;;;;7.53;1.60;;;21.80;90.10;;;;;;5013143;28;20492;-70
2022/09/14 05:24:03;;;;;;;10.50;2.63;;;21.80;90.20;;;;;;5012984;28;20053;-70
2022/09/14 05:26:29;;;;;;;7.57;1.75;;;21.80;90.20;;;;;;5013168;28;20101;-70
2022/09/14 05:28:58;;;;;;;3.63;1.50;;;21.80;90.20;;;;;;5013036;28;20078;-70
2022/09/14 05:31:25;;;;;;;5.82;1.50;;;21.80;90.20;;;;;;5013063;28;20443;-70
2022/09/14 05:33:51;;;;;;;13.65;2.20;;;21.80;90.20;;;;;;5013024;28;20037;-70
2022/09/14 05:36:18;;;;;;;11.13;2.20;;;21.80;90.10;;;;;;5012576;28;20029;-70
2022/09/14 05:38:44;;;;;;;8.73;1.73;;;21.80;90.10;;;;;;5012992;28;20388;-70
2022/09/14 05:41:11;;;;;;;5.78;1.65;;;21.80;90.10;;;;;;5012662;28;20105;-70
2022/09/14 05:43:37;;;;;;;8.25;1.95;;;21.80;90.10;;;;;;5012547;28;20120;-70
2022/09/14 05:46:06;;;;;;;3.97;1.33;;;21.80;90.10;;;;;;5012963;28;20178;-69
2022/09/14 05:48:36;;;;;;;12.10;1.70;;;21.80;90.20;;;;;;5012821;28;20034;-70
2022/09/14 05:51:06;;;;;;;5.38;1.73;;;21.80;90.20;;;;;;5012527;28;20061;-71
2022/09/14 05:53:32;;;;;;;6.97;1.70;;;21.80;90.20;;;;;;5012696;28;20029;-70
2022/09/14 05:56:03;;;;;;;7.90;2.03;;;21.80;90.20;;;;;;5012524;28;20029;-70
2022/09/14 05:58:29;;;;;;;13.75;2.72;;;21.80;90.20;;;;;;5012667;28;20036;-69
2022/09/14 06:00:55;;;;;;;8.63;1.70;;;21.80;90.20;;;;;;5012482;28;20018;-70
2022/09/14 06:03:21;;;;;;;6.50;2.10;;;21.80;90.20;;;;;;5012182;28;20040;-71
2022/09/14 06:05:46;;;;;;;10.48;2.15;;;21.90;90.20;;;;;;5012135;28;20018;-71
2022/09/14 06:08:12;;;;;;;10.10;1.75;;;21.90;90.30;;;;;;5013566;28;20025;-71
2022/09/14 06:10:38;;;;;;;7.45;2.30;;;21.90;90.30;;;;;;5016176;28;20028;-71
2022/09/14 06:13:03;;;;;;;10.50;1.60;;;21.90;90.30;;;;;;5016316;28;20476;-70
2022/09/14 06:15:29;;;;;;;11.43;1.90;;;21.90;90.20;;;;;;5016817;28;20047;-71
2022/09/14 06:17:54;;;;;;;7.38;1.80;;;22.00;90.20;;;;;;5016300;28;20034;-71
2022/09/14 06:20:20;;;;;;;6.35;1.20;;;21.90;90.10;;;;;;5016065;28;20030;-70
2022/09/14 06:22:46;;;;;;;9.85;1.40;;;22.00;90.10;;;;;;5016011;28;20037;-71
2022/09/14 06:25:11;;;;;;;5.32;1.50;;;22.00;90.00;;;;;;5016176;28;20029;-71
2022/09/14 06:27:37;;;;;;;11.02;1.63;;;22.00;90.00;;;;;;5016167;28;20041;-71
2022/09/14 06:30:04;;;;;;;7.30;1.70;;;22.00;90.00;;;;;;5015794;28;20026;-70
2022/09/14 06:32:30;;;;;;;8.05;1.70;;;22.00;89.80;;;;;;5015504;28;20083;-70
2022/09/14 06:34:56;;;;;;;7.18;1.50;;;22.00;89.60;;;;;;5015744;28;20113;-70
2022/09/14 06:37:21;;;;;;;6.13;1.38;;;22.00;89.50;;;;;;5016120;28;20040;-71
2022/09/14 06:39:47;;;;;;;4.28;2.03;;;22.00;89.30;;;;;;5015823;28;20029;-71
2022/09/14 06:42:13;;;;;;;8.93;1.60;;;22.00;89.30;;;;;;5015513;28;20045;-69
2022/09/14 06:44:39;;;;;;;11.40;2.00;;;22.00;89.30;;;;;;5015472;28;20026;-71
2022/09/14 06:47:05;;;;;;;5.70;1.60;;;22.10;89.40;;;;;;5015692;28;20472;-71
2022/09/14 06:49:31;;;;;;;4.53;1.40;;;22.10;89.30;;;;;;5015634;28;20048;-71
2022/09/14 06:51:56;;;;;;;9.48;1.40;;;22.10;89.60;;;;;;5015735;28;20105;-71
2022/09/14 06:54:23;;;;;;;3.67;1.50;;;22.10;89.50;;;;;;5015845;28;20395;-71
2022/09/14 06:56:49;;;;;;;5.53;1.10;;;22.10;89.60;;;;;;5015641;28;20108;-71
2022/09/14 06:59:16;;;;;;;4.85;1.48;;;22.10;89.50;;;;;;5015588;28;20065;-71
2022/09/14 07:01:44;;;;;;;5.25;0.90;;;22.10;89.50;;;;;;5015313;28;20022;-70
2022/09/14 07:04:10;;;;;;;4.82;1.30;;;22.10;89.50;;;;;;5015057;28;20546;-70
2022/09/14 07:06:47;;;;;;;6.88;1.38;;;22.10;89.60;;;;;;5014996;28;20045;-70
2022/09/14 07:09:15;;;;;;;7.40;1.20;;;22.10;89.60;;;;;;5014817;28;20022;-70
2022/09/14 07:11:41;;;;;;;6.28;1.60;;;22.10;89.50;;;;;;5014215;28;20022;-71
2022/09/14 07:14:07;;;;;;;4.68;1.50;;;22.10;89.40;;;;;;5014014;28;20030;-70
2022/09/14 07:16:35;;;;;;;7.10;1.35;;;22.20;89.40;;;;;;5015145;28;20030;-70
2022/09/14 07:19:03;;;;;;;4.20;1.30;;;22.10;89.50;;;;;;5014105;28;20057;-70
2022/09/14 07:21:30;;;;;;;3.65;1.27;;;22.10;89.10;;;;;;5014478;28;20018;-71
2022/09/14 07:23:56;;;;;;;5.18;1.20;;;22.20;89.10;;;;;;5014790;28;20084;-70
2022/09/14 07:26:25;;;;;;;4.55;1.20;;;22.20;89.00;;;;;;5014248;28;20026;-71
2022/09/14 07:29:01;;;;;;;2.33;1.17;;;22.10;89.00;;;;;;5013823;28;20057;-70
2022/09/14 07:31:30;;;;;;;6.07;2.25;;;22.20;89.20;;;;;;5014938;28;20022;-70
2022/09/14 07:33:58;;;;;;;8.05;1.20;;;22.20;88.90;;;;;;5014921;28;20053;-70
2022/09/14 07:36:25;;;;;;;2.58;0.93;;;22.20;88.50;;;;;;5014892;28;20050;-70
2022/09/14 07:38:52;;;;;;;5.95;1.40;;;22.20;87.80;;;;;;5014657;28;20121;-70
2022/09/14 07:41:22;;;;;;;5.25;0.93;;;22.20;86.70;;;;;;5014813;28;20084;-70
2022/09/14 07:43:53;;;;;;;2.63;1.00;;;22.20;86.00;;;;;;5014797;28;20477;-70
2022/09/14 07:46:20;;;;;;;5.35;0.88;;;22.20;85.40;;;;;;5014630;28;20033;-70
2022/09/14 07:48:47;;;;;;;2.20;1.05;;;22.20;85.20;;;;;;5014369;28;20033;-70
2022/09/14 07:51:13;;;;;;;5.03;1.05;;;22.20;85.20;;;;;;5014461;28;20053;-70
2022/09/14 07:53:41;;;;;;;5.22;1.20;;;22.20;85.20;;;;;;5014609;28;20018;-70
2022/09/14 07:56:08;;;;;;;3.58;1.55;;;22.20;85.20;;;;;;5014355;28;20033;-70
2022/09/14 07:58:35;;;;;;;4.20;1.10;;;22.20;85.00;;;;;;5014590;28;20026;-70
2022/09/14 08:01:07;;;;;;;8.40;1.60;;;22.20;84.50;;;;;;5014288;28;20084;-70
2022/09/14 08:03:34;;;;;;;7.50;2.22;;;22.20;83.80;;;;;;5014336;28;20029;-70
2022/09/14 08:06:01;;;;;;;12.10;5.85;;;22.20;83.40;;;;;;5014561;28;20034;-70
2022/09/14 08:08:32;;;;;;;18.60;8.90;;;22.20;83.20;;;;;;5014073;28;20036;-70
2022/09/14 08:11:11;;;;;;;17.83;8.57;;;22.20;83.00;;;;;;5014387;28;20076;-70
2022/09/14 08:13:48;;;;;;;14.25;6.95;;;22.20;82.80;;;;;;5014291;28;20022;-69
2022/09/14 08:16:14;;;;;;;18.10;5.65;;;22.20;82.80;;;;;;5014237;28;20026;-69
2022/09/14 08:18:40;;;;;;;12.20;4.45;;;22.20;82.90;;;;;;5014164;28;20516;-70
2022/09/14 08:21:12;;;;;;;8.15;3.88;;;22.30;82.90;;;;;;5014173;28;20093;-70
2022/09/14 08:23:39;;;;;;;9.48;4.68;;;22.30;83.00;;;;;;5014066;28;20034;-69
2022/09/14 08:26:07;;;;;;;10.40;4.30;;;22.30;83.20;;;;;;5013900;28;20033;-69
2022/09/14 08:28:35;;;;;;;13.50;4.53;;;22.30;83.40;;;;;;5013476;28;20423;-70
2022/09/14 08:31:15;;;;;;;7.70;3.05;;;22.30;83.40;;;;;;5013735;28;20030;-70
2022/09/14 08:33:44;;;;;;;8.68;2.97;;;22.30;83.60;;;;;;5013821;28;20084;-70
2022/09/14 08:36:13;;;;;;;4.65;1.70;;;22.40;83.60;;;;;;5013763;28;20060;-69
2022/09/14 08:38:39;;;;;;;9.57;2.30;;;22.40;83.50;;;;;;5013806;28;20373;-70
2022/09/14 08:41:10;;;;;;;8.88;2.28;;;22.40;83.40;;;;;;5013501;28;20026;-70
2022/09/14 08:43:38;;;;;;;7.13;2.33;;;22.40;83.40;;;;;;5013671;28;20041;-70
2022/09/14 08:46:07;;;;;;;7.35;1.52;;;22.40;83.40;;;;;;5013582;28;20025;-70
2022/09/14 08:48:47;;;;;;;5.00;1.40;;;22.40;83.40;;;;;;5013543;28;20041;-70
2022/09/14 08:51:14;;;;;;;6.60;1.30;;;22.50;83.30;;;;;;5013123;28;20046;-69
2022/09/14 08:53:40;;;;;;;5.72;1.40;;;22.50;83.10;;;;;;5013226;28;20084;-70
2022/09/14 08:56:20;;;;;;;3.25;1.33;;;22.60;83.00;;;;;;5013491;28;20057;-70
2022/09/14 08:58:56;;;;;;;3.13;1.55;;;22.60;82.90;;;;;;5013513;28;20040;-70
2022/09/14 09:01:27;;;;;;;3.30;1.10;;;22.70;82.80;;;;;;5012151;28;20014;-70
2022/09/14 09:04:07;;;;;;;3.60;1.10;;;22.70;82.80;;;;;;5012918;28;20443;-70
2022/09/14 09:06:57;;;;;;;3.63;1.10;;;22.70;82.70;;;;;;5012831;28;20077;-70
2022/09/14 09:09:31;;;;;;;3.75;0.90;;;22.70;82.80;;;;;;5012974;28;20040;-70
2022/09/14 09:11:58;;;;;;;3.50;1.30;;;22.80;82.80;;;;;;5013203;28;20022;-69
2022/09/14 09:14:33;;;;;;;3.22;1.02;;;22.80;82.70;;;;;;5012923;28;20079;-69
2022/09/14 09:17:03;;;;;;;1.30;0.90;;;22.80;82.80;;;;;;5012863;28;20109;-70
2022/09/14 09:19:35;;;;;;;2.55;0.82;;;22.80;82.90;;;;;;5013144;28;20030;-70
2022/09/14 09:22:05;;;;;;;5.07;1.05;;;22.80;82.90;;;;;;5012648;28;20108;-69
2022/09/14 09:24:40;;;;;;;4.38;1.08;;;22.80;82.80;;;;;;5013347;28;20037;-70
2022/09/14 09:27:10;;;;;;;2.33;0.82;;;22.80;82.90;;;;;;5013109;28;20377;-69
2022/09/14 09:29:36;;;;;;;3.60;1.10;;;22.80;82.70;;;;;;5013005;28;20026;-70
2022/09/14 09:32:04;;;;;;;6.72;1.40;;;22.80;82.60;;;;;;5013085;28;20464;-69
2022/09/14 09:34:32;;;;;;;6.55;1.58;;;22.80;82.80;;;;;;5012906;28;20024;-69
2022/09/14 09:36:59;;;;;;;3.35;1.30;;;22.80;83.00;;;;;;5013047;28;20476;-72
2022/09/14 09:39:28;;;;;;;2.05;1.13;;;22.90;83.30;;;;;;5012696;28;20022;-70
2022/09/14 09:41:56;;;;;;;3.80;1.10;;;22.90;83.50;;;;;;5013014;28;20042;-69
2022/09/14 09:44:22;;;;;;;4.80;1.00;;;22.90;83.60;;;;;;5016067;28;20038;-81
2022/09/14 09:46:52;;;;;;;4.00;1.13;;;22.90;83.20;;;;;;5016680;28;20022;-71
2022/09/14 09:49:31;;;;;;;3.35;1.00;;;23.00;83.40;;;;;;5016807;28;20050;-72
2022/09/14 09:52:10;;;;;;;5.88;1.00;;;23.00;83.70;;;;;;5016535;28;20025;-72
2022/09/14 09:54:38;;;;;;;2.85;1.20;;;23.00;83.60;;;;;;5016289;28;20542;-73
2022/09/14 09:57:22;;;;;;;5.05;0.90;;;23.10;83.50;;;;;;5016500;28;20053;-72
2022/09/14 09:59:47;;;;;;;2.45;1.05;;;23.10;83.70;;;;;;5016487;28;20022;-72
2022/09/14 10:02:24;;;;;;;5.70;1.10;;;23.10;83.50;;;;;;5016081;28;20468;-72
2022/09/14 10:05:05;;;;;;;3.85;1.50;;;23.20;83.50;;;;;;5016255;28;20466;-71
2022/09/14 10:07:34;;;;;;;7.05;1.63;;;23.20;83.50;;;;;;5016515;28;20443;-71
2022/09/14 10:10:04;;;;;;;2.90;1.15;;;23.20;83.40;;;;;;5016398;28;20124;-71
2022/09/14 10:12:30;;;;;;;4.15;1.00;;;23.30;83.50;;;;;;5016259;28;20435;-71
2022/09/14 10:15:11;;;;;;;4.60;1.20;;;23.30;83.70;;;;;;5016226;28;20034;-69
2022/09/14 10:17:36;;;;;;;4.70;1.13;;;23.30;83.70;;;;;;5016213;28;20483;-69
2022/09/14 10:20:03;;;;;;;5.85;1.00;;;23.30;83.60;;;;;;5016287;28;20025;-69
2022/09/14 10:22:33;;;;;;;2.10;1.05;;;23.30;83.70;;;;;;5016118;28;20038;-69
2022/09/14 10:25:03;;;;;;;2.15;1.38;;;23.30;83.70;;;;;;5015976;28;20032;-69
2022/09/14 10:27:44;;;;;;;2.85;1.05;;;23.30;83.90;;;;;;5016247;28;20435;-69
2022/09/14 10:30:20;;;;;;;7.55;1.30;;;23.30;84.00;;;;;;5015825;28;20112;-69
2022/09/14 10:33:04;;;;;;;11.70;2.38;;;23.30;84.00;;;;;;4998338;28;20449;-69
2022/09/14 10:36:06;;;;;;;2.88;1.30;;;23.30;84.40;;;;;;5015814;28;20025;-69
2022/09/14 10:38:44;;;;;;;6.53;1.30;;;23.30;84.70;;;;;;5015628;28;20388;-69
2022/09/14 10:41:10;;;;;;;4.95;1.50;;;23.40;84.70;;;;;;5015501;28;20376;-69
2022/09/14 10:43:41;;;;;;;6.00;1.58;;;23.40;84.50;;;;;;5015774;28;20042;-68
2022/09/14 10:46:12;;;;;;;5.88;1.88;;;23.50;84.50;;;;;;5015936;28;20018;-68
2022/09/14 10:48:44;;;;;;;3.30;1.40;;;23.60;84.50;;;;;;5015756;28;20036;-69
2022/09/14 10:51:28;;;;;;;5.78;1.45;;;23.60;84.50;;;;;;5015447;28;20069;-68
2022/09/14 10:54:18;;;;;;;7.60;1.30;;;23.70;84.40;;;;;;5014694;28;20030;-69
2022/09/14 10:57:04;;;;;;;3.80;1.40;;;23.80;84.50;;;;;;5015557;28;20029;-68
2022/09/14 10:59:50;;;;;;;4.18;1.45;;;23.90;84.90;;;;;;5015340;28;20030;-69
2022/09/14 11:02:19;;;;;;;5.60;2.03;;;24.00;84.90;;;;;;5014576;28;20069;-69
2022/09/14 11:04:44;;;;;;;3.83;1.33;;;24.00;84.80;;;;;;5015314;28;20037;-69
2022/09/14 11:07:55;;;;;;;6.65;2.85;;;24.10;84.70;;;;;;5015190;28;20112;-68
2022/09/14 11:10:51;;;;;;;5.03;1.60;;;24.20;84.30;;;;;;5012938;28;20061;-69
2022/09/14 11:13:35;;;;;;;7.97;1.92;;;24.20;84.00;;;;;;5015009;28;20030;-69
2022/09/14 11:16:12;;;;;;;4.82;1.60;;;24.20;83.60;;;;;;5015217;28;20412;-68
2022/09/14 11:18:59;;;;;;;4.25;1.20;;;24.30;83.60;;;;;;5015109;28;20036;-69
2022/09/14 11:21:51;;;;;;;4.63;1.30;;;24.30;83.50;;;;;;5015145;28;20476;-68
2022/09/14 11:24:58;;;;;;;6.22;1.52;;;24.30;82.60;;;;;;5014927;28;20404;-68
2022/09/14 11:27:37;;;;;;;5.05;1.30;;;24.30;82.60;;;;;;5008979;28;20041;-69
2022/09/14 11:30:08;;;;;;;4.43;1.40;;;24.30;82.80;;;;;;5015348;28;20125;-68
2022/09/14 11:32:40;;;;;;;5.35;1.70;;;24.20;82.80;;;;;;5014580;28;20029;-69
2022/09/14 11:35:28;;;;;;;;;;;24.30;82.20;;;;;;5015349;28;20098;-68
2022/09/14 11:38:02;;;;;;;5.70;1.50;;;24.20;82.00;;;;;;5014806;28;19913;-69
2022/09/14 11:40:44;;;;;;;8.13;1.40;;;24.20;82.30;;;;;;5014566;28;20481;-69
2022/09/14 11:43:28;;;;;;;;;;;24.20;82.40;;;;;;5015031;28;20061;-69
2022/09/14 11:46:07;;;;;;;5.72;1.92;;;24.10;82.10;;;;;;5014714;28;19912;-69
2022/09/14 11:48:49;;;;;;;9.15;3.00;;;24.10;82.10;;;;;;5014497;28;20025;-68
2022/09/14 11:51:28;;;;;;;7.65;2.50;;;24.20;82.10;;;;;;5014611;28;20430;-68
2022/09/14 11:53:54;;;;;;;5.55;1.83;;;24.10;81.90;;;;;;5014611;28;20510;-68
2022/09/14 11:56:29;;;;;;;4.60;1.67;;;24.20;81.90;;;;;;5014258;28;20034;-69
2022/09/14 11:58:58;;;;;;;7.70;1.60;;;24.20;81.80;;;;;;5014590;28;20028;-68
2022/09/14 12:01:31;;;;;;;6.18;1.75;;;24.30;81.50;;;;;;5014312;28;20030;-69
2022/09/14 12:04:00;;;;;;;7.22;1.42;;;24.30;81.10;;;;;;5014144;28;20042;-77
2022/09/14 12:06:34;;;;;;;8.63;1.70;;;24.30;81.80;;;;;;5013812;28;20030;-69
2022/09/14 12:09:23;;;;;;;6.75;1.95;;;24.40;81.40;;;;;;5014238;28;20026;-69
2022/09/14 12:11:59;;;;;;;8.63;1.90;;;24.50;81.30;;;;;;5014311;28;20022;-69
2022/09/14 12:14:30;;;;;;;11.98;2.25;;;24.50;81.10;;;;;;5014088;28;20026;-70
2022/09/14 12:17:04;;;;;;;6.90;2.13;;;24.60;80.90;;;;;;5014063;28;20048;-69
2022/09/14 12:19:31;;;;;;;17.30;3.67;;;24.60;80.90;;;;;;5013807;28;20112;-68
2022/09/14 12:22:37;;;;;;;9.73;2.53;;;24.70;80.90;;;;;;5013984;28;20451;-68
2022/09/14 12:25:08;;;;;;;6.70;2.40;;;24.70;80.70;;;;;;5013422;28;20038;-68
2022/09/14 12:27:39;;;;;;;8.48;2.75;;;24.70;80.90;;;;;;5013900;28;20468;-69
2022/09/14 12:30:39;;;;;;;12.18;2.95;;;24.60;80.70;;;;;;5013843;28;20083;-69
2022/09/14 12:33:32;;;;;;;15.30;3.80;;;24.60;81.30;;;;;;5013308;28;20519;-69
2022/09/14 12:36:00;;;;;;;14.40;3.67;;;24.60;81.70;;;;;;5013661;28;20384;-69
2022/09/14 12:38:28;;;;;;;16.88;3.85;;;24.60;81.20;;;;;;5013596;28;20092;-69
2022/09/14 12:41:17;;;;;;;11.70;4.40;;;24.60;81.10;;;;;;5014372;28;20040;-68
2022/09/14 12:43:52;;;;;;;19.63;4.85;;;24.60;81.20;;;;;;5011834;28;20404;-68
2022/09/14 12:46:21;;;;;;;13.38;5.35;;;24.50;81.60;;;;;;5013723;28;20052;-68
2022/09/14 12:48:51;;;;;;;11.18;4.78;;;24.50;81.90;;;;;;5013525;28;20024;-68
2022/09/14 12:51:32;;;;;;;18.77;5.43;;;24.50;82.00;;;;;;5013484;28;20044;-69
2022/09/14 12:54:00;;;;;;;14.55;5.78;;;24.60;82.30;;;;;;5013416;28;20037;-69
2022/09/14 12:56:39;;;;;;;14.55;5.47;;;24.60;82.30;;;;;;5013326;28;20046;-68
2022/09/14 12:59:34;;;;;;;12.40;5.22;;;24.60;82.10;;;;;;5013558;28;20040;-69
2022/09/14 13:02:18;;;;;;;17.70;5.47;;;24.70;81.90;;;;;;5013296;28;20029;-69
2022/09/14 13:04:46;;;;;;;14.10;4.97;;;24.70;81.60;;;;;;4995791;28;20397;-69
2022/09/14 13:07:16;;;;;;;17.73;5.15;;;24.70;81.80;;;;;;5013229;28;20022;-69